Latest Weather Observations for Winton

IDQ60801

Issued at 2:02 pm EST Monday 25 July 2016 (issued every 30 minutes, with the page automatically refreshed every 10 minutes)

About weather observations | Map of weather stations | Latest weather observations for QLD | Other Formats
Station Details ID: 037039 Name: WINTON AIRPORT Lat: -22.36 Lon: 143.08 Height: 192.2 m
Data from the previous 72 hours. | See also: Recent months at Winton
Date/Time
EST
Temp
°C
App
Temp
°C
Dew
Point
°C
Rel
Hum
%
Delta-T
°C
Wind Press
QNH
hPa
Press
MSL
hPa
Rain since
9am
mm
Dir  Spd
km/h
Gust
km/h
Spd
kts
Gust
kts
25/02:00pm 20.8 17.5 6.4 39 7.3 SSE 13 24 7 13 1018.9 1018.6 0.0
25/01:30pm 20.1 15.5 5.7 39 7.2 SE 19 30 10 16 1019.2 1018.9 0.0
25/01:00pm 20.2 16.3 6.9 42 6.8 SSE 17 24 9 13 1019.8 1019.5 0.0
25/12:30pm 19.7 15.2 6.8 43 6.6 SSE 20 30 11 16 1020.4 1020.1 0.0
25/12:00pm 19.2 14.6 6.7 44 6.3 SSE 20 30 11 16 1020.6 1020.3 0.0
25/11:30am 19.1 14.3 7.2 46 6.1 SE 22 33 12 18 1020.9 1020.6 0.0
25/11:00am 18.2 12.0 6.1 45 6.0 SE 28 35 15 19 1021.3 1021.0 0.0
25/10:30am 18.0 11.9 6.5 47 5.8 SE 28 35 15 19 1021.6 1021.2 0.0
25/10:00am 16.9 11.1 6.4 50 5.2 SE 26 32 14 17 1021.7 1021.3 0.0
25/09:30am 16.6 10.8 6.4 51 5.0 SE 26 35 14 19 1021.7 1021.3 0.0
25/09:00am 16.2 10.9 6.9 54 4.6 SSE 24 28 13 15 1021.6 1021.2 0.0
25/08:30am 15.4 11.1 7.2 58 4.1 SSE 19 26 10 14 1021.1 1020.8 0.0
25/08:00am 13.6 11.6 8.7 72 2.5 SE 9 13 5 7 1020.9 1020.6 0.0
25/07:30am 11.8 9.8 8.6 81 1.6 SE 9 9 5 5 1020.7 1020.4 0.0
25/07:00am 11.4 9.3 8.3 81 1.5 SE 9 9 5 5 1020.6 1020.3 0.0
25/06:30am 11.7 9.5 8.0 78 1.8 SE 9 9 5 5 1020.2 1019.9 0.0
25/06:00am 12.1 10.3 8.0 76 2.0 SE 7 9 4 5 1019.9 1019.6 0.0
25/05:30am 12.5 11.0 8.4 76 2.1 SSE 6 7 3 4 1019.7 1019.4 0.0
25/05:00am 12.4 10.8 8.7 78 1.9 S 7 9 4 5 1019.3 1019.0 0.0
25/04:30am 12.4 10.9 9.1 80 1.7 S 7 9 4 5 1019.3 1019.0 0.0
25/04:00am 12.3 10.1 9.3 82 1.5 S 11 11 6 6 1019.3 1019.0 0.0
25/03:30am 12.6 10.9 9.8 83 1.4 SSW 9 11 5 6 1019.0 1018.7 0.0
25/03:00am 12.4 10.7 10.0 85 1.2 SSW 9 9 5 5 1019.0 1018.7 0.0
25/02:30am 12.8 11.4 9.4 80 1.7 SSW 7 9 4 5 1019.1 1018.8 0.0
25/02:00am 13.6 12.3 9.3 75 2.2 SSW 6 6 3 3 1019.2 1018.9 0.0
25/01:30am 13.6 12.3 9.3 75 2.2 S 6 6 3 3 1019.4 1019.1 0.0
25/01:00am 13.8 12.5 9.3 74 2.3 S 6 7 3 4 1019.5 1019.2 0.0
25/12:30am 14.0 12.8 9.4 74 2.4 S 6 6 3 3 1019.5 1019.2 0.0
25/12:00am 14.8 13.1 8.5 66 3.2 S 7 9 4 5 1019.6 1019.3 0.0
 
Date/Time
EST
Temp
°C
App
Temp
°C
Dew
Point
°C
Rel
Hum
%
Delta-T
°C
Wind Press
QNH
hPa
Press
MSL
hPa
Rain since
9am
mm
Dir  Spd
km/h
Gust
km/h
Spd
kts
Gust
kts
24/11:30pm 15.5 13.4 8.3 62 3.7 S 9 11 5 6 1019.6 1019.3 0.0
24/11:00pm 16.2 13.3 8.2 59 4.1 S 13 15 7 8 1019.4 1019.1 0.0
24/10:30pm 16.7 13.8 8.1 57 4.4 S 13 15 7 8 1019.4 1019.1 0.0
24/10:00pm 17.5 14.7 8.4 55 4.7 S 13 17 7 9 1019.1 1018.8 0.0
24/09:30pm 17.2 14.7 9.6 61 4.0 S 13 15 7 8 1019.0 1018.7 0.0
24/09:00pm 16.6 15.3 11.1 70 3.0 S 9 11 5 6 1018.7 1018.4 0.0
24/08:30pm 16.9 15.6 11.2 69 3.1 SSW 9 9 5 5 1018.5 1018.2 0.0
24/08:00pm 17.6 16.0 11.4 67 3.4 SSW 11 13 6 7 1018.2 1017.9 0.0
24/07:30pm 17.6 15.8 12.1 70 3.1 SSW 13 15 7 8 1017.8 1017.5 0.0
24/07:00pm 18.3 17.3 12.3 68 3.4 SSW 9 11 5 6 1017.4 1017.1 0.0
24/06:30pm 19.3 17.7 11.6 61 4.3 SSW 11 13 6 7 1016.9 1016.5 0.0
24/06:00pm 21.2 19.4 10.7 51 5.8 SSW 11 13 6 7 1016.6 1016.2 0.0
24/05:30pm 23.1 21.2 10.5 45 7.0 SSW 11 19 6 10 1016.4 1016.0 0.0
24/05:00pm 24.1 20.1 8.9 38 8.2 SSW 20 26 11 14 1016.1 1015.7 0.0
24/04:30pm 24.6 21.0 9.7 39 8.2 SSW 19 22 10 12 1015.5 1015.2 0.0
24/04:00pm 24.6 20.8 9.7 39 8.2 SSW 20 24 11 13 1015.2 1014.9 0.0
24/03:30pm 24.5 20.6 8.5 36 8.6 SSW 19 24 10 13 1015.3 1015.0 0.0
24/03:00pm 24.6 20.4 8.1 35 8.9 SW 20 26 11 14 1015.5 1015.2 0.0
24/02:30pm 25.0 21.5 8.9 36 8.8 SSW 17 22 9 12 1016.0 1015.6 0.0
24/02:00pm 24.6 22.1 8.1 35 8.8 SW 11 15 6 8 1016.3 1015.9 0.0
24/01:30pm 24.5 23.0 8.5 36 8.6 SSW 6 11 3 6 1016.6 1016.2 0.0
24/01:00pm 23.5 22.0 9.1 40 7.8 SW 7 13 4 7 1017.2 1016.8 0.0
24/12:30pm 23.0 21.5 8.3 39 7.8 SSW 6 9 3 5 1017.8 1017.5 0.0
24/12:00pm 22.1 20.5 8.6 42 7.2 SSW 7 11 4 6 1018.4 1018.1 0.0
24/11:30am 21.4 19.7 9.9 48 6.3 SSW 9 15 5 8 1018.9 1018.6 0.0
24/11:00am 21.0 19.3 9.9 49 6.0 SSW 9 15 5 8 1019.3 1019.0 0.0
24/10:30am 20.0 18.5 10.4 54 5.2 S 9 13 5 7 1019.3 1019.0 0.0
24/10:00am 19.1 17.7 9.6 54 5.1 S 7 9 4 5 1019.1 1018.8 0.0
24/09:30am 18.4 17.3 10.0 58 4.5 SSE 6 9 3 5 1019.0 1018.7 0.0
24/09:00am 18.0 17.4 9.1 56 4.7 ENE 2 4 1 2 1018.5 1018.2 0.0
24/08:30am 16.7 17.0 11.0 69 3.1 CALM 0 0 0 0 1018.3 1018.0 0.0
24/08:00am 15.2 15.8 11.8 80 1.9 CALM 0 0 0 0 1017.9 1017.6 0.0
24/07:30am 13.8 13.7 12.0 89 1.0 NNE 4 6 2 3 1017.5 1017.2 0.0
24/07:00am 13.1 11.9 11.7 91 0.8 NE 9 9 5 5 1017.1 1016.7 0.0
24/06:30am 13.7 13.7 11.0 84 1.4 S 2 2 1 1 1017.0 1016.6 0.0
24/06:00am 13.8 13.3 10.8 82 1.6 S 4 6 2 3 1016.7 1016.3 0.0
24/05:30am 14.1 13.2 10.7 80 1.8 S 6 7 3 4 1016.4 1016.0 0.0
24/05:00am 14.7 13.8 10.5 76 2.2 S 6 7 3 4 1016.1 1015.7 0.0
24/04:30am 14.4 13.5 11.2 81 1.7 S 7 7 4 4 1016.1 1015.7 0.0
24/04:00am 14.2 13.4 11.0 81 1.7 SSW 6 6 3 3 1016.0 1015.6 0.0
24/03:30am 14.6 14.1 10.8 78 2.0 S 4 4 2 2 1015.8 1015.5 0.0
24/03:00am 15.1 14.0 10.7 75 2.3 S 7 9 4 5 1015.7 1015.4 0.0
24/02:30am 15.0 13.9 12.0 82 1.6 SSW 9 9 5 5 1015.8 1015.5 0.0
24/02:00am 14.9 13.5 12.2 84 1.5 SSW 11 11 6 6 1015.7 1015.4 0.0
24/01:30am 15.3 14.7 12.2 82 1.7 SSW 7 7 4 4 1015.7 1015.4 0.0
24/01:00am 15.3 14.9 12.4 83 1.6 SSW 6 7 3 4 1016.0 1015.6 0.0
24/12:30am 16.6 16.5 12.0 74 2.5 SSE 4 6 2 3 1016.0 1015.6 0.0
24/12:00am 16.7 16.7 12.5 76 2.3 S 4 6 2 3 1016.1 1015.7 0.0
 
Date/Time
EST
Temp
°C
App
Temp
°C
Dew
Point
°C
Rel
Hum
%
Delta-T
°C
Wind Press
QNH
hPa
Press
MSL
hPa
Rain since
9am
mm
Dir  Spd
km/h
Gust
km/h
Spd
kts
Gust
kts
23/11:30pm 17.2 16.9 12.7 75 2.5 SSE 6 9 3 5 1016.3 1015.9 0.0
23/11:00pm 17.1 17.3 13.2 78 2.2 SSE 4 6 2 3 1016.2 1015.8 0.0
23/10:30pm 17.3 17.1 13.6 79 2.1 S 7 9 4 5 1016.4 1016.0 0.0
23/10:00pm 18.4 17.8 13.5 73 2.8 S 9 13 5 7 1016.4 1016.0 0.0
23/09:30pm 18.8 18.3 13.9 73 2.8 S 9 11 5 6 1016.5 1016.1 0.0
23/09:00pm 19.4 19.1 14.4 73 2.9 S 9 11 5 6 1016.5 1016.1 0.0
23/08:30pm 20.0 19.8 14.6 71 3.2 S 9 11 5 6 1016.2 1015.8 0.0
23/08:00pm 20.5 21.0 15.5 73 3.0 S 7 9 4 5 1016.0 1015.6 0.0
23/07:30pm 21.0 21.3 15.1 69 3.5 S 7 9 4 5 1015.4 1015.1 0.0
23/07:00pm 21.8 22.6 15.9 69 3.6 SSE 6 7 3 4 1015.1 1014.8 0.0
23/06:30pm 21.7 22.6 16.6 73 3.1 SSW 7 9 4 5 1014.9 1014.6 0.0
23/06:00pm 23.8 24.6 15.8 61 4.9 S 6 9 3 5 1014.7 1014.4 0.0
23/05:30pm 25.3 25.6 15.9 56 5.8 SSE 9 15 5 8 1014.4 1014.1 0.0
23/05:00pm 26.1 25.1 15.5 52 6.5 SE 15 19 8 10 1014.0 1013.7 0.0
23/04:30pm 26.7 26.2 16.0 52 6.6 SE 13 17 7 9 1013.9 1013.6 0.0
23/04:00pm 27.0 27.0 16.3 52 6.7 ESE 11 17 6 9 1013.8 1013.5 0.0
23/03:30pm 27.0 27.6 15.7 50 7.0 ESE 7 13 4 7 1013.8 1013.5 0.0
23/03:00pm 27.1 27.0 16.1 51 6.8 SE 11 20 6 11 1013.7 1013.4 0.0
23/02:30pm 27.5 28.1 16.8 52 6.7 ESE 9 15 5 8 1013.8 1013.5 0.0
23/02:00pm 27.1 27.9 15.8 50 7.0 S 6 9 3 5 1014.1 1013.8 0.0
23/01:30pm 26.8 28.1 17.0 55 6.2 SSW 6 11 3 6 1014.4 1014.1 0.0
23/01:00pm 26.6 27.4 17.4 57 5.8 SW 9 15 5 8 1014.8 1014.5 0.0
23/12:30pm 26.2 27.2 17.8 60 5.3 SW 9 13 5 7 1015.3 1015.0 0.0
23/12:00pm 26.3 26.8 17.4 58 5.6 SSW 11 15 6 8 1015.6 1015.3 0.0
23/11:30am 26.4 27.7 17.5 58 5.6 SSW 7 11 4 6 1015.8 1015.5 0.0
23/11:00am 25.8 27.4 16.9 58 5.6 E 4 9 2 5 1016.1 1015.7 0.0
23/10:30am 24.9 27.9 18.4 67 4.1 CALM 0 2 0 1 1016.3 1015.9 0.0
23/10:00am 23.3 26.3 19.2 78 2.6 WSW 2 4 1 2 1016.4 1016.0 0.0
23/09:30am 22.7 25.2 19.1 80 2.3 W 4 6 2 3 1016.3 1015.9 0.0
23/09:00am 21.8 24.1 19.4 86 1.5 NE 6 7 3 4 1015.7 1015.4 0.0
23/08:30am 20.4 22.8 19.7 96 0.4 NE 6 6 3 3 1015.5 1015.2 0.0
23/08:00am 19.1 21.3 19.1 100 0.0 NNE 6 6 3 3 1015.5 1015.2 0.0
23/07:30am 17.6 20.2 17.6 100 0.0 CALM 0 0 0 0 1015.2 1014.9 0.0
23/07:00am 17.8 19.4 17.8 100 0.0 SW 6 6 3 3 1015.1 1014.8 0.0
23/06:30am 18.1 21.0 18.1 100 0.0 CALM 0 0 0 0 1014.7 1014.4 0.0
23/06:00am 18.6 21.7 18.6 100 0.0 CALM 0 0 0 0 1014.4 1014.1 0.0
23/05:30am 18.8 22.0 18.8 100 0.0 CALM 0 0 0 0 1014.2 1013.9 0.0
23/05:00am 18.8 22.0 18.8 100 0.0 CALM 0 0 0 0 1014.1 1013.8 0.0
23/04:30am 19.0 22.2 18.8 99 0.1 CALM 0 0 0 0 1013.9 1013.6 0.0
23/04:00am 19.4 22.1 19.4 100 0.0 SE 4 6 2 3 1014.0 1013.7 0.0
23/03:30am 19.3 21.9 19.3 100 0.0 ESE 4 6 2 3 1013.9 1013.6 0.0
23/03:00am 19.3 21.9 19.3 100 0.0 ESE 4 6 2 3 1014.0 1013.7 0.0
23/02:30am 19.5 22.2 19.5 100 0.0 ESE 4 4 2 2 1014.0 1013.7 0.0
23/02:00am 19.4 21.9 19.1 98 0.2 ESE 4 6 2 3 1014.1 1013.8 0.0
23/01:30am 19.6 21.9 19.4 99 0.1 ESE 6 6 3 3 1014.1 1013.8 0.0
23/01:00am 19.7 22.1 18.7 94 0.6 E 4 6 2 3 1014.2 1013.9 0.0
23/12:30am 20.3 23.2 19.0 92 0.8 ENE 2 4 1 2 1014.1 1013.8 0.0
23/12:00am 20.3 22.8 19.0 92 0.8 NE 4 4 2 2 1014.2 1013.9 0.0
 
Date/Time
EST
Temp
°C
App
Temp
°C
Dew
Point
°C
Rel
Hum
%
Delta-T
°C
Wind Press
QNH
hPa
Press
MSL
hPa
Rain since
9am
mm
Dir  Spd
km/h
Gust
km/h
Spd
kts
Gust
kts
22/11:30pm 20.3 22.7 18.8 91 0.9 ENE 4 6 2 3 1014.3 1014.0 0.0
22/11:00pm 20.5 22.2 18.4 88 1.3 NE 7 9 4 5 1014.5 1014.2 0.0
22/10:30pm 21.4 23.6 19.1 87 1.5 NNE 6 6 3 3 1014.4 1014.1 0.0
22/10:00pm 21.6 23.6 19.2 86 1.5 NE 7 9 4 5 1014.3 1014.0 0.0
22/09:30pm 21.7 23.9 19.3 86 1.5 NE 6 6 3 3 1014.3 1014.0 0.0
22/09:00pm 22.4 24.5 19.0 81 2.2 ENE 6 7 3 4 1014.4 1014.1 0.0
22/08:30pm 22.9 25.5 19.3 80 2.3 NE 4 6 2 3 1014.3 1014.0 0.0
22/08:00pm 23.8 26.5 18.7 73 3.3 SE 2 2 1 1 1014.3 1014.0 0.0
22/07:30pm 24.8 27.5 18.7 69 3.9 SE 2 2 1 1 1014.0 1013.7 0.0
22/07:00pm 25.3 28.4 18.7 67 4.2 CALM 0 0 0 0 1013.7 1013.4 0.0
22/06:30pm 25.3 28.6 19.2 69 3.9 CALM 0 0 0 0 1013.6 1013.3 0.0
22/06:00pm 26.8 29.9 18.6 60 5.3 CALM 0 0 0 0 1013.5 1013.2 0.0
22/05:30pm 27.9 30.7 18.0 55 6.3 CALM 0 2 0 1 1013.5 1013.2 0.0
22/05:00pm 28.0 30.5 18.1 55 6.3 SE 2 4 1 2 1013.4 1013.1 0.0
22/04:30pm 28.1 30.7 18.5 56 6.2 SE 2 6 1 3 1013.3 1013.0 0.0
22/04:00pm 28.3 30.0 18.1 54 6.5 SSE 6 9 3 5 1013.3 1013.0 0.0
22/03:30pm 28.8 31.1 18.6 54 6.6 ESE 4 7 2 4 1013.3 1013.0 0.0
22/03:00pm 28.9 31.5 19.2 55 6.3 SE 4 13 2 7 1013.5 1013.2 0.0
22/02:30pm 28.5 30.8 18.6 55 6.4 E 4 7 2 4 1013.7 1013.4 0.0

Other Formats:

Comma delimited format used in spreadsheet applications
http://www.bom.gov.au/fwo/IDQ60801/IDQ60801.94342.axf

JavaScript Object Notation format (JSON) in row-major order
http://www.bom.gov.au/fwo/IDQ60801/IDQ60801.94342.json